createdAt,value
2019-03-30T00:01:21.334Z,24.27
2019-03-30T00:03:52.006Z,25.53
2019-03-30T00:06:22.656Z,25.33
2019-03-30T00:08:53.614Z,25.10
2019-03-30T00:11:24.638Z,24.70
2019-03-30T00:13:56.792Z,26.07
2019-03-30T00:16:27.790Z,24.93
2019-03-30T00:18:58.468Z,25.70
2019-03-30T00:21:29.227Z,25.20
2019-03-30T00:24:00.558Z,25.20
2019-03-30T00:26:33.202Z,24.40
2019-03-30T00:29:04.437Z,25.80
2019-03-30T00:31:35.437Z,25.73
2019-03-30T00:34:06.864Z,25.27
2019-03-30T00:36:38.582Z,24.67
2019-03-30T00:39:10.042Z,23.87
2019-03-30T00:41:45.026Z,25.40
2019-03-30T00:44:15.962Z,25.27
2019-03-30T00:46:47.853Z,25.13
2019-03-30T00:49:19.023Z,24.20
2019-03-30T00:51:50.081Z,25.30
2019-03-30T00:54:20.770Z,24.47
2019-03-30T00:56:51.919Z,24.90
2019-03-30T00:59:23.149Z,24.90
2019-03-30T01:01:54.933Z,25.40
2019-03-30T01:04:25.635Z,24.83
2019-03-30T01:06:56.822Z,26.07
2019-03-30T01:09:27.506Z,26.57
2019-03-30T01:12:01.335Z,26.20
2019-03-30T01:14:32.867Z,25.53
2019-03-30T01:17:04.731Z,25.53
2019-03-30T01:19:35.680Z,26.07
2019-03-30T01:22:06.724Z,26.30
2019-03-30T01:24:37.731Z,25.13
2019-03-30T01:27:08.922Z,26.10
2019-03-30T01:29:39.933Z,26.23
2019-03-30T01:32:11.545Z,25.83
2019-03-30T01:34:42.529Z,25.97
2019-03-30T01:37:13.201Z,27.07
2019-03-30T01:39:44.300Z,26.13
2019-03-30T01:42:15.109Z,27.47
2019-03-30T01:44:45.797Z,27.07
2019-03-30T01:47:17.032Z,26.97
2019-03-30T01:49:48.331Z,28.60
2019-03-30T01:52:19.098Z,28.47
2019-03-30T01:54:50.784Z,27.83
2019-03-30T01:57:21.492Z,27.93
2019-03-30T01:59:52.307Z,29.40
2019-03-30T02:02:24.460Z,28.07
2019-03-30T02:04:55.794Z,28.13
2019-03-30T02:07:29.065Z,28.80
2019-03-30T02:10:00.369Z,28.33
2019-03-30T02:12:31.208Z,28.87
2019-03-30T02:15:02.238Z,29.37
2019-03-30T02:17:33.564Z,29.00
2019-03-30T02:20:09.253Z,28.67
2019-03-30T02:22:39.910Z,30.00
2019-03-30T02:25:11.140Z,29.63
2019-03-30T02:27:42.152Z,28.57
2019-03-30T02:30:13.105Z,28.57
2019-03-30T02:32:44.986Z,28.70
2019-03-30T02:35:16.223Z,28.73
2019-03-30T02:37:46.973Z,30.10
2019-03-30T02:40:17.695Z,29.80
2019-03-30T02:42:48.805Z,29.80
2019-03-30T02:45:19.492Z,29.37
2019-03-30T02:47:50.144Z,29.63
2019-03-30T02:50:20.840Z,29.03
2019-03-30T02:52:51.889Z,30.57
2019-03-30T02:55:22.824Z,30.87
2019-03-30T02:57:54.225Z,30.47
2019-03-30T03:00:24.878Z,29.20
2019-03-30T03:02:56.141Z,29.80
2019-03-30T03:05:28.474Z,30.43
2019-03-30T03:08:00.222Z,29.20
2019-03-30T03:10:30.966Z,31.30
2019-03-30T03:13:03.557Z,29.47
2019-03-30T03:15:35.186Z,30.10
2019-03-30T03:18:06.098Z,30.47
2019-03-30T03:20:36.970Z,31.10
2019-03-30T03:23:07.635Z,30.07
2019-03-30T03:25:38.589Z,31.03
2019-03-30T03:28:09.878Z,30.43
2019-03-30T03:30:40.714Z,31.30
2019-03-30T03:33:11.522Z,31.10
2019-03-30T03:35:42.366Z,30.90
2019-03-30T03:38:13.331Z,31.67
2019-03-30T03:40:43.993Z,31.13
2019-03-30T03:43:16.551Z,29.80
2019-03-30T03:45:47.227Z,29.97
2019-03-30T03:48:18.106Z,30.53
2019-03-30T03:50:53.683Z,31.37
2019-03-30T03:53:24.700Z,31.40
2019-03-30T03:55:56.828Z,30.60
2019-03-30T03:58:30.959Z,32.83
2019-03-30T04:01:04.048Z,35.23
2019-03-30T04:03:35.732Z,31.63
2019-03-30T04:06:07.870Z,32.77
2019-03-30T04:08:41.221Z,34.00
2019-03-30T04:11:14.804Z,32.27
2019-03-30T04:13:48.298Z,31.03
2019-03-30T04:16:19.956Z,31.80
2019-03-30T04:18:50.617Z,32.83
2019-03-30T04:21:21.770Z,32.13
2019-03-30T04:23:54.521Z,32.43
2019-03-30T04:26:25.951Z,32.93
2019-03-30T04:28:57.004Z,32.90
2019-03-30T04:31:28.058Z,33.00
2019-03-30T04:33:58.734Z,33.10
2019-03-30T04:36:29.419Z,33.43
2019-03-30T04:39:00.483Z,31.17
2019-03-30T04:41:31.215Z,31.33
2019-03-30T04:44:01.990Z,32.20
2019-03-30T04:46:32.850Z,32.57
2019-03-30T04:49:03.567Z,32.00
2019-03-30T04:51:34.395Z,31.70
2019-03-30T04:54:05.316Z,33.37
2019-03-30T04:56:36.250Z,33.10
2019-03-30T04:59:06.919Z,32.17
2019-03-30T05:01:37.605Z,32.13
2019-03-30T05:04:08.347Z,32.70
2019-03-30T05:06:39.490Z,32.07
2019-03-30T05:09:10.212Z,32.07
2019-03-30T05:11:41.292Z,32.73
2019-03-30T05:14:12.068Z,32.10
2019-03-30T05:16:43.024Z,30.93
2019-03-30T05:19:13.806Z,32.10
2019-03-30T05:21:45.311Z,31.53
2019-03-30T05:24:16.759Z,31.10
2019-03-30T05:26:47.677Z,33.47
2019-03-30T05:29:18.368Z,31.83
2019-03-30T05:31:49.412Z,31.63
2019-03-30T05:34:20.389Z,30.93
2019-03-30T05:36:51.059Z,31.23
2019-03-30T05:39:21.970Z,32.07
2019-03-30T05:41:52.889Z,30.43
2019-03-30T05:44:23.686Z,30.27
2019-03-30T05:46:57.448Z,31.57
2019-03-30T05:49:28.375Z,31.03
2019-03-30T05:51:59.581Z,30.70
2019-03-30T05:54:30.320Z,30.90
2019-03-30T05:57:01.700Z,30.47
2019-03-30T05:59:32.398Z,30.03
2019-03-30T06:02:03.770Z,29.67
2019-03-30T06:04:34.444Z,29.40
2019-03-30T06:07:06.930Z,29.37
2019-03-30T06:09:39.403Z,29.07
2019-03-30T06:12:10.067Z,29.40
2019-03-30T06:14:41.055Z,28.60
2019-03-30T06:17:11.715Z,28.83
2019-03-30T06:19:42.382Z,28.57
2019-03-30T06:22:13.062Z,29.00
2019-03-30T06:24:44.130Z,29.10
2019-03-30T06:27:14.885Z,29.10
2019-03-30T06:29:48.850Z,30.37
2019-03-30T06:32:19.806Z,29.07
2019-03-30T06:34:50.638Z,29.30
2019-03-30T06:37:22.730Z,30.20
2019-03-30T06:39:53.388Z,29.47
2019-03-30T06:42:24.420Z,29.57
2019-03-30T06:44:55.208Z,30.50
2019-03-30T06:47:26.723Z,29.40
2019-03-30T06:49:58.525Z,30.33
2019-03-30T06:52:29.556Z,29.87
2019-03-30T06:55:02.099Z,29.63
2019-03-30T06:57:33.058Z,29.40
2019-03-30T07:00:04.195Z,28.63
2019-03-30T07:02:35.418Z,29.20
2019-03-30T07:05:09.299Z,28.97
2019-03-30T07:07:42.246Z,29.03
2019-03-30T07:10:14.146Z,28.57
2019-03-30T07:12:46.354Z,29.17
2019-03-30T07:15:17.029Z,28.77
2019-03-30T07:17:48.334Z,28.23
2019-03-30T07:20:30.003Z,28.23
2019-03-30T07:23:11.676Z,28.13
2019-03-30T07:25:33.867Z,28.13
2019-03-30T07:28:04.540Z,28.20
2019-03-30T07:30:35.635Z,28.07
2019-03-30T07:33:08.253Z,27.77
2019-03-30T07:35:39.544Z,27.43
2019-03-30T07:38:10.350Z,27.47
2019-03-30T07:40:41.461Z,26.83
2019-03-30T07:43:13.822Z,26.73
2019-03-30T07:45:45.167Z,26.90
2019-03-30T07:48:16.121Z,27.13
2019-03-30T07:50:47.150Z,26.70
2019-03-30T07:53:26.289Z,26.30
2019-03-30T07:55:51.454Z,25.93
2019-03-30T07:58:22.387Z,26.70
2019-03-30T08:00:53.108Z,26.23
2019-03-30T08:03:24.076Z,25.20
2019-03-30T08:05:54.879Z,27.07
2019-03-30T08:08:25.979Z,25.80
2019-03-30T08:10:56.971Z,26.17
2019-03-30T08:13:27.959Z,26.07
2019-03-30T08:15:58.699Z,25.17
2019-03-30T08:18:29.838Z,24.03
2019-03-30T08:21:00.634Z,25.70
2019-03-30T08:23:40.126Z,25.17
2019-03-30T08:26:04.936Z,23.77
2019-03-30T08:28:36.049Z,24.77
2019-03-30T08:31:06.771Z,22.97
2019-03-30T08:33:38.376Z,21.83
2019-03-30T08:36:10.358Z,21.33
2019-03-30T08:38:41.043Z,23.87
2019-03-30T08:41:11.705Z,22.37
2019-03-30T08:43:42.436Z,22.40
2019-03-30T08:46:13.097Z,24.13
2019-03-30T08:48:43.815Z,23.10
2019-03-30T08:51:14.523Z,22.93
2019-03-30T08:53:54.492Z,22.57
2019-03-30T08:56:17.945Z,19.43
2019-03-30T08:58:48.612Z,21.33
2019-03-30T09:01:19.314Z,20.10
2019-03-30T09:03:51.206Z,19.80
2019-03-30T09:06:22.168Z,22.27
2019-03-30T09:08:52.860Z,21.23
2019-03-30T09:11:23.740Z,20.60
2019-03-30T09:13:54.673Z,20.60
2019-03-30T09:16:25.599Z,22.37
2019-03-30T09:18:56.668Z,20.70
2019-03-30T09:21:27.314Z,20.63
2019-03-30T09:24:09.479Z,19.93
2019-03-30T09:26:30.647Z,22.53
2019-03-30T09:29:01.376Z,19.77
2019-03-30T09:31:32.299Z,18.87
2019-03-30T09:34:03.649Z,17.93
2019-03-30T09:36:34.478Z,17.20
2019-03-30T09:39:07.856Z,16.07
2019-03-30T09:41:39.028Z,17.27
2019-03-30T09:44:09.706Z,16.53
2019-03-30T09:46:40.378Z,13.40
2019-03-30T09:49:11.083Z,15.00
2019-03-30T09:51:41.839Z,14.87
2019-03-30T09:54:23.747Z,13.83
2019-03-30T09:56:46.033Z,13.80
2019-03-30T09:59:17.006Z,14.47
2019-03-30T10:01:48.667Z,12.73
2019-03-30T10:04:19.604Z,12.83
2019-03-30T10:06:50.286Z,13.13
2019-03-30T10:09:21.370Z,11.43
2019-03-30T10:11:52.055Z,12.43
2019-03-30T10:14:23.054Z,12.20
2019-03-30T10:16:53.807Z,12.77
2019-03-30T10:19:27.797Z,14.83
2019-03-30T10:21:58.697Z,13.17
2019-03-30T10:24:37.981Z,12.87
2019-03-30T10:27:03.446Z,9.20
2019-03-30T10:29:34.414Z,6.73
2019-03-30T10:32:06.309Z,6.93
2019-03-30T10:34:39.738Z,6.90
2019-03-30T10:37:11.814Z,7.20
2019-03-30T10:39:42.578Z,6.83
2019-03-30T10:42:13.327Z,6.87
2019-03-30T10:44:44.042Z,6.90
2019-03-30T10:47:14.986Z,7.43
2019-03-30T10:49:46.848Z,7.50
2019-03-30T10:52:17.602Z,6.67
2019-03-30T10:54:52.803Z,7.70
2019-03-30T10:57:21.812Z,6.97
2019-03-30T10:59:52.991Z,7.10
2019-03-30T11:02:24.001Z,7.53
2019-03-30T11:04:57.896Z,7.17
2019-03-30T11:07:29.026Z,7.00
2019-03-30T11:10:03.254Z,7.03
2019-03-30T11:12:33.934Z,7.40
2019-03-30T11:15:07.092Z,7.17
2019-03-30T11:17:38.702Z,7.10
2019-03-30T11:20:10.049Z,7.03
2019-03-30T11:22:40.743Z,7.57
2019-03-30T11:25:11.535Z,7.67
2019-03-30T11:27:42.278Z,7.27
2019-03-30T11:30:13.539Z,8.03
2019-03-30T11:32:44.695Z,7.47
2019-03-30T11:35:17.313Z,6.70
2019-03-30T11:37:48.589Z,6.90
2019-03-30T11:40:19.377Z,6.70
2019-03-30T11:42:52.172Z,7.03
2019-03-30T11:45:22.865Z,7.63
2019-03-30T11:47:53.992Z,7.23
2019-03-30T11:50:24.650Z,7.90
2019-03-30T11:52:55.431Z,7.17
2019-03-30T11:55:26.523Z,6.90
2019-03-30T11:57:58.535Z,7.53
2019-03-30T12:00:29.564Z,7.30
2019-03-30T12:03:00.680Z,7.57
2019-03-30T12:05:31.790Z,7.93
2019-03-30T12:08:02.815Z,7.10
2019-03-30T12:10:33.500Z,7.30
2019-03-30T12:13:04.367Z,8.07
2019-03-30T12:15:35.413Z,7.90
2019-03-30T12:18:06.381Z,7.83
2019-03-30T12:20:37.342Z,7.43
2019-03-30T12:23:08.355Z,7.20
2019-03-30T12:25:39.024Z,7.60
2019-03-30T12:28:09.981Z,8.30
2019-03-30T12:30:40.902Z,8.60
2019-03-30T12:33:11.611Z,8.20
2019-03-30T12:35:42.526Z,8.50
2019-03-30T12:38:13.452Z,8.10
2019-03-30T12:40:44.356Z,9.00
2019-03-30T12:43:15.032Z,8.27
2019-03-30T12:45:45.965Z,8.40
2019-03-30T12:48:17.638Z,8.27
2019-03-30T12:50:48.312Z,8.93
2019-03-30T12:53:19.265Z,9.00
2019-03-30T12:55:49.959Z,9.27
2019-03-30T12:58:20.653Z,10.13
2019-03-30T13:00:51.359Z,9.27
2019-03-30T13:03:22.359Z,9.27
2019-03-30T13:05:53.316Z,9.57
2019-03-30T13:08:24.302Z,10.07
2019-03-30T13:10:55.266Z,10.47
2019-03-30T13:13:26.311Z,10.40
2019-03-30T13:15:57.234Z,10.30
2019-03-30T13:18:28.193Z,10.33
2019-03-30T13:20:59.335Z,10.83
2019-03-30T13:23:30.279Z,10.37
2019-03-30T13:26:04.057Z,9.93
2019-03-30T13:28:33.681Z,10.07
2019-03-30T13:31:04.462Z,9.90
2019-03-30T13:33:35.464Z,10.87
2019-03-30T13:36:10.682Z,10.50
2019-03-30T13:38:41.164Z,10.47
2019-03-30T13:41:14.080Z,10.53
2019-03-30T13:43:44.228Z,10.57
2019-03-30T13:46:14.925Z,10.20
2019-03-30T13:48:45.998Z,11.80
2019-03-30T13:51:16.976Z,11.07
2019-03-30T13:53:48.035Z,10.50
2019-03-30T13:56:22.518Z,11.47
2019-03-30T13:58:53.557Z,11.37
2019-03-30T14:01:24.236Z,10.57
2019-03-30T14:03:54.926Z,10.67
2019-03-30T14:06:25.801Z,9.73
2019-03-30T14:08:59.311Z,11.10
2019-03-30T14:11:32.787Z,10.50
2019-03-30T14:14:03.924Z,11.37
2019-03-30T14:16:35.664Z,10.43
2019-03-30T14:19:06.787Z,9.83
2019-03-30T14:21:37.457Z,10.53
2019-03-30T14:24:08.154Z,10.27
2019-03-30T14:26:40.158Z,10.37
2019-03-30T14:29:11.181Z,9.60
2019-03-30T14:31:42.012Z,10.27
2019-03-30T14:34:12.978Z,9.90
2019-03-30T14:36:43.987Z,9.50
2019-03-30T14:39:15.121Z,9.23
2019-03-30T14:41:46.958Z,64.20
2019-03-30T14:44:17.932Z,107.30
2019-03-30T14:46:48.633Z,356.23
2019-03-30T14:49:21.151Z,227.47
2019-03-30T14:51:52.084Z,121.00
2019-03-30T14:54:24.400Z,68.37
2019-03-30T14:56:55.890Z,26.70
2019-03-30T14:59:26.589Z,10.10
2019-03-30T15:01:57.228Z,9.20
2019-03-30T15:04:28.248Z,9.57
2019-03-30T15:06:58.961Z,9.77
2019-03-30T15:09:30.732Z,10.27
2019-03-30T15:12:01.425Z,10.20
2019-03-30T15:14:32.238Z,9.47
2019-03-30T15:17:02.893Z,9.10
2019-03-30T15:19:33.743Z,9.60
2019-03-30T15:22:04.939Z,10.30
2019-03-30T15:24:36.017Z,10.30
2019-03-30T15:27:06.689Z,10.13
2019-03-30T15:29:37.701Z,10.10
2019-03-30T15:32:08.411Z,10.00
2019-03-30T15:34:39.175Z,10.50
2019-03-30T15:37:10.058Z,9.73
2019-03-30T15:39:41.275Z,9.77
2019-03-30T15:42:12.039Z,8.33
2019-03-30T15:44:42.729Z,9.57
2019-03-30T15:47:13.643Z,10.27
2019-03-30T15:49:44.683Z,10.40
2019-03-30T15:52:15.673Z,9.90
2019-03-30T15:54:46.661Z,9.67
2019-03-30T15:57:17.707Z,9.90
2019-03-30T15:59:48.375Z,10.17
2019-03-30T16:02:19.310Z,9.43
2019-03-30T16:04:50.228Z,11.00
2019-03-30T16:07:20.916Z,10.37
2019-03-30T16:09:51.914Z,9.60
2019-03-30T16:12:22.870Z,9.87
2019-03-30T16:14:53.847Z,9.77
2019-03-30T16:17:24.914Z,9.33
2019-03-30T16:19:55.842Z,9.90
2019-03-30T16:22:26.944Z,9.47
2019-03-30T16:24:57.940Z,9.10
2019-03-30T16:27:29.616Z,9.70
2019-03-30T16:30:00.584Z,9.20
2019-03-30T16:32:31.603Z,10.30
2019-03-30T16:35:02.380Z,9.90
2019-03-30T16:37:33.047Z,9.50
2019-03-30T16:40:06.316Z,9.77
2019-03-30T16:42:38.176Z,10.00
2019-03-30T16:45:09.381Z,9.53
2019-03-30T16:47:40.377Z,9.93
2019-03-30T16:50:11.747Z,9.87
2019-03-30T16:52:42.442Z,9.83
2019-03-30T16:55:13.739Z,9.63
2019-03-30T16:57:44.780Z,10.73
2019-03-30T17:00:16.429Z,10.73
2019-03-30T17:02:47.439Z,10.80
2019-03-30T17:05:18.151Z,9.90
2019-03-30T17:07:49.116Z,10.00
2019-03-30T17:10:20.564Z,10.87
2019-03-30T17:12:51.602Z,10.50
2019-03-30T17:15:22.288Z,10.83
2019-03-30T17:17:53.241Z,10.03
2019-03-30T17:20:24.208Z,10.37
2019-03-30T17:22:58.599Z,10.47
2019-03-30T17:25:27.771Z,10.60
2019-03-30T17:27:59.113Z,10.50
2019-03-30T17:30:31.128Z,10.27
2019-03-30T17:33:02.072Z,11.40
2019-03-30T17:35:33.013Z,10.83
2019-03-30T17:38:04.060Z,11.30
2019-03-30T17:40:34.740Z,11.60
2019-03-30T17:43:05.576Z,11.77
2019-03-30T17:45:36.272Z,11.90
2019-03-30T17:48:07.322Z,12.07
2019-03-30T17:50:38.453Z,11.57
2019-03-30T17:53:09.674Z,11.43
2019-03-30T17:55:40.457Z,11.63
2019-03-30T17:58:13.288Z,11.70
2019-03-30T18:00:44.364Z,12.53
2019-03-30T18:03:15.294Z,12.90
2019-03-30T18:05:46.246Z,12.53
2019-03-30T18:08:17.405Z,13.30
2019-03-30T18:10:48.106Z,12.20
2019-03-30T18:13:18.779Z,12.93
2019-03-30T18:15:49.540Z,12.93
2019-03-30T18:18:20.511Z,13.23
2019-03-30T18:20:55.108Z,13.80
2019-03-30T18:23:24.722Z,13.83
2019-03-30T18:25:56.368Z,14.80
2019-03-30T18:28:27.737Z,13.47
2019-03-30T18:30:58.996Z,13.47
2019-03-30T18:33:30.452Z,15.20
2019-03-30T18:36:01.806Z,14.37
2019-03-30T18:38:36.756Z,13.20
2019-03-30T18:41:10.306Z,14.47
2019-03-30T18:43:41.363Z,15.07
2019-03-30T18:46:12.767Z,14.60
2019-03-30T18:48:43.916Z,13.83
2019-03-30T18:51:15.521Z,13.97
2019-03-30T18:53:47.697Z,21.80
2019-03-30T18:56:20.460Z,19.33
2019-03-30T18:58:51.550Z,17.37
2019-03-30T19:01:23.072Z,48.13
2019-03-30T19:03:54.521Z,53.57
2019-03-30T19:06:25.254Z,32.73
2019-03-30T19:08:56.309Z,22.97
2019-03-30T19:11:27.087Z,21.37
2019-03-30T19:13:58.022Z,21.63
2019-03-30T19:16:29.148Z,21.97
2019-03-30T19:19:00.144Z,22.03
2019-03-30T19:21:30.826Z,24.57
2019-03-30T19:24:01.827Z,22.70
2019-03-30T19:26:32.747Z,21.97
2019-03-30T19:29:03.700Z,26.33
2019-03-30T19:31:34.619Z,27.50
2019-03-30T19:34:05.579Z,28.30
2019-03-30T19:36:36.525Z,33.23
2019-03-30T19:39:10.030Z,36.27
2019-03-30T19:41:40.985Z,32.07
2019-03-30T19:44:12.381Z,30.63
2019-03-30T19:46:43.654Z,30.70
2019-03-30T19:49:14.692Z,28.37
2019-03-30T19:51:45.382Z,31.73
2019-03-30T19:54:16.103Z,33.53
2019-03-30T19:56:47.102Z,35.30
2019-03-30T19:59:17.764Z,33.87
2019-03-30T20:01:48.864Z,33.10
2019-03-30T20:04:19.903Z,34.07
2019-03-30T20:06:51.822Z,35.23
2019-03-30T20:09:22.861Z,34.60
2019-03-30T20:11:53.846Z,33.57
2019-03-30T20:14:24.517Z,36.73
2019-03-30T20:16:55.476Z,35.73
2019-03-30T20:19:26.161Z,32.50
2019-03-30T20:21:57.583Z,33.53
2019-03-30T20:24:28.715Z,34.03
2019-03-30T20:27:00.195Z,33.53
2019-03-30T20:29:30.873Z,33.33
2019-03-30T20:32:01.838Z,34.23
2019-03-30T20:34:33.945Z,32.93
2019-03-30T20:37:04.721Z,32.00
2019-03-30T20:39:35.388Z,33.20
2019-03-30T20:42:06.317Z,33.90
2019-03-30T20:44:37.287Z,32.00
2019-03-30T20:47:08.322Z,32.13
2019-03-30T20:49:39.392Z,37.03
2019-03-30T20:52:10.064Z,39.93
2019-03-30T20:54:41.038Z,33.90
2019-03-30T20:57:11.780Z,28.50
2019-03-30T20:59:42.507Z,29.10
2019-03-30T21:02:13.795Z,27.93
2019-03-30T21:04:44.481Z,26.00
2019-03-30T21:07:15.256Z,26.83
2019-03-30T21:09:46.265Z,26.37
2019-03-30T21:12:17.036Z,27.57
2019-03-30T21:14:47.962Z,27.60
2019-03-30T21:17:19.130Z,27.57
2019-03-30T21:19:50.205Z,28.10
2019-03-30T21:22:21.032Z,26.23
2019-03-30T21:24:53.079Z,27.17
2019-03-30T21:27:23.828Z,26.67
2019-03-30T21:29:55.295Z,27.33
2019-03-30T21:32:26.063Z,26.93
2019-03-30T21:34:57.044Z,25.60
2019-03-30T21:37:28.139Z,26.07
2019-03-30T21:39:59.079Z,25.63
2019-03-30T21:42:30.014Z,25.33
2019-03-30T21:45:00.830Z,25.20
2019-03-30T21:47:31.702Z,24.80
2019-03-30T21:50:02.858Z,26.40
2019-03-30T21:52:33.803Z,26.13
2019-03-30T21:55:05.380Z,26.47
2019-03-30T21:57:36.180Z,26.00
2019-03-30T22:00:12.520Z,25.47
2019-03-30T22:02:43.687Z,24.03
2019-03-30T22:05:14.683Z,26.10
2019-03-30T22:07:45.790Z,24.37
2019-03-30T22:10:21.401Z,26.60
2019-03-30T22:12:52.364Z,26.17
2019-03-30T22:15:29.202Z,26.73
2019-03-30T22:18:00.262Z,25.20
2019-03-30T22:20:31.056Z,24.73
2019-03-30T22:23:01.770Z,25.37
2019-03-30T22:25:32.916Z,25.63
2019-03-30T22:28:04.358Z,25.67
2019-03-30T22:30:36.211Z,25.20
2019-03-30T22:33:08.267Z,24.07
2019-03-30T22:35:40.412Z,24.43
2019-03-30T22:38:11.089Z,23.43
2019-03-30T22:40:41.826Z,23.97
2019-03-30T22:43:13.085Z,24.07
2019-03-30T22:45:45.516Z,23.93
2019-03-30T22:48:17.266Z,23.27
2019-03-30T22:50:48.288Z,23.27
2019-03-30T22:53:19.223Z,24.37
2019-03-30T22:55:51.715Z,23.43
2019-03-30T22:58:22.835Z,24.17
2019-03-30T23:01:10.066Z,23.53
2019-03-30T23:03:43.014Z,25.20
2019-03-30T23:06:14.216Z,24.43
2019-03-30T23:08:44.904Z,24.60
2019-03-30T23:11:15.546Z,23.90
2019-03-30T23:13:48.083Z,24.47
2019-03-30T23:16:18.750Z,25.07
2019-03-30T23:18:50.834Z,25.47
2019-03-30T23:21:22.119Z,25.73
2019-03-30T23:23:53.834Z,25.20
2019-03-30T23:26:25.121Z,25.30
2019-03-30T23:28:59.301Z,25.33
2019-03-30T23:31:31.198Z,24.77
2019-03-30T23:34:02.045Z,25.50
2019-03-30T23:36:32.952Z,24.30
2019-03-30T23:39:06.028Z,25.00
2019-03-30T23:41:37.406Z,23.67
2019-03-30T23:44:08.082Z,25.50
2019-03-30T23:46:39.181Z,24.43
2019-03-30T23:49:10.193Z,25.07
2019-03-30T23:51:41.678Z,25.43
2019-03-30T23:54:16.450Z,26.60
2019-03-30T23:56:47.105Z,24.93
2019-03-30T23:59:18.395Z,25.67
